Time;durP1;ratioP1;P1;durP2;ratioP2;P2;SDS_P1;SDS_P2;PMS_P1;PMS_P2;Temp;Humidity;BMP_temperature;BMP_pressure;BME280_temperature;BME280_humidity;BME280_pressure;Samples;Min_cycle;Max_cycle;Signal;HPM_P1;HPM_P2
2023/08/19 00:00:55;;;;;;;9.85;8.95;;;23.30;99.90;;;;;;5076012;28;20201;-78
2023/08/19 00:03:20;;;;;;;11.07;9.30;;;23.30;99.90;;;;;;5102343;28;20903;-74
2023/08/19 00:05:46;;;;;;;10.27;9.37;;;23.40;99.90;;;;;;5104585;28;20208;-83
2023/08/19 00:08:12;;;;;;;9.57;8.68;;;23.40;99.90;;;;;;5104472;28;20258;-78
2023/08/19 00:10:38;;;;;;;10.90;8.77;;;23.50;99.90;;;;;;5085888;28;20196;-71
2023/08/19 00:13:04;;;;;;;10.80;9.90;;;23.50;99.90;;;;;;5106707;27;20725;-71
2023/08/19 00:15:30;;;;;;;10.15;9.32;;;23.40;99.90;;;;;;5085966;28;20276;-68
2023/08/19 00:17:55;;;;;;;10.90;10.00;;;23.30;99.90;;;;;;5094180;28;20302;-63
2023/08/19 00:20:21;;;;;;;10.63;9.63;;;23.30;99.90;;;;;;5084615;28;20993;-62
2023/08/19 00:22:47;;;;;;;9.88;9.13;;;23.40;99.90;;;;;;5104265;28;20308;-65
2023/08/19 00:25:12;;;;;;;11.38;10.48;;;23.30;99.90;;;;;;5103523;28;20275;-65
2023/08/19 00:27:38;;;;;;;10.25;9.20;;;23.20;99.90;;;;;;5094673;28;20197;-68
2023/08/19 00:30:04;;;;;;;10.98;10.05;;;23.20;99.90;;;;;;5101693;28;20682;-62
2023/08/19 00:32:30;;;;;;;10.80;9.70;;;23.10;99.90;;;;;;5085430;28;20216;-71
2023/08/19 00:34:55;;;;;;;11.10;10.15;;;23.00;99.90;;;;;;5085505;28;20193;-68
2023/08/19 00:37:21;;;;;;;10.23;9.23;;;23.00;99.90;;;;;;5108373;27;20191;-83
2023/08/19 00:39:47;;;;;;;10.73;9.83;;;23.00;99.90;;;;;;5093049;28;20189;-80
2023/08/19 00:42:12;;;;;;;12.48;11.15;;;23.00;99.90;;;;;;5103308;28;20411;-58
2023/08/19 00:44:38;;;;;;;11.17;9.70;;;22.90;99.90;;;;;;5101418;28;20181;-59
2023/08/19 00:47:04;;;;;;;10.55;9.55;;;22.90;99.90;;;;;;5098637;28;20810;-60
2023/08/19 00:49:31;;;;;;;10.33;9.53;;;22.80;99.90;;;;;;5083078;28;20216;-57
2023/08/19 00:51:57;;;;;;;10.25;9.35;;;22.70;99.90;;;;;;5103616;28;20185;-63
2023/08/19 00:54:23;;;;;;;11.13;10.05;;;22.70;99.90;;;;;;5103274;28;20287;-56
2023/08/19 00:56:49;;;;;;;10.65;9.57;;;22.60;99.90;;;;;;5102281;28;20338;-57
2023/08/19 00:59:15;;;;;;;11.10;10.10;;;22.60;99.90;;;;;;5100942;28;20287;-57
2023/08/19 01:01:41;;;;;;;10.97;10.07;;;22.70;99.90;;;;;;5082591;28;20173;-62
2023/08/19 01:04:07;;;;;;;11.23;10.33;;;22.80;99.90;;;;;;5102151;28;20268;-56
2023/08/19 01:06:45;;;;;;;12.80;11.60;;;22.70;99.90;;;;;;5083591;28;20538;-57
2023/08/19 01:09:37;;;;;;;10.33;9.53;;;22.70;99.90;;;;;;5084233;28;20578;-57
2023/08/19 01:12:09;;;;;;;12.23;10.17;;;22.70;99.90;;;;;;5084975;28;20181;-57
2023/08/19 01:14:43;;;;;;;11.20;10.10;;;22.60;99.90;;;;;;5102625;28;20267;-56
2023/08/19 01:17:14;;;;;;;11.13;10.13;;;22.50;99.90;;;;;;5082507;28;20427;-58
2023/08/19 01:19:41;;;;;;;11.13;9.83;;;22.50;99.90;;;;;;5096697;28;20173;-57
2023/08/19 01:22:09;;;;;;;10.70;9.73;;;22.60;99.90;;;;;;5103588;28;20574;-62
2023/08/19 01:24:37;;;;;;;11.25;10.13;;;22.60;99.90;;;;;;5069433;28;20668;-63
2023/08/19 01:27:04;;;;;;;15.23;12.00;;;22.60;99.90;;;;;;5103787;28;20189;-64
2023/08/19 01:29:30;;;;;;;13.52;12.13;;;22.60;99.90;;;;;;5083380;28;20451;-61
2023/08/19 01:31:56;;;;;;;10.97;9.90;;;22.50;99.90;;;;;;5104394;28;20259;-61
2023/08/19 01:34:24;;;;;;;11.23;10.27;;;22.50;99.90;;;;;;5103925;28;20276;-55
2023/08/19 01:36:56;;;;;;;12.40;10.43;;;22.40;99.90;;;;;;5104056;28;20235;-55
2023/08/19 01:39:24;;;;;;;11.47;10.40;;;22.40;99.90;;;;;;5096184;28;20410;-54
2023/08/19 01:41:50;;;;;;;11.27;10.17;;;22.50;99.90;;;;;;5099654;28;20446;-55
2023/08/19 01:44:16;;;;;;;11.27;10.13;;;22.50;99.90;;;;;;5084015;28;20692;-55
2023/08/19 01:46:41;;;;;;;11.07;10.00;;;22.40;99.90;;;;;;5104068;28;20192;-55
2023/08/19 01:49:07;;;;;;;10.67;9.67;;;22.50;99.90;;;;;;5100177;28;20477;-55
2023/08/19 01:51:32;;;;;;;11.03;10.03;;;22.30;99.90;;;;;;5104089;28;20193;-55
2023/08/19 01:53:58;;;;;;;13.33;11.37;;;22.30;99.90;;;;;;5103902;28;20185;-55
2023/08/19 01:56:23;;;;;;;13.47;11.60;;;22.30;99.90;;;;;;5103835;28;20200;-55
2023/08/19 01:58:49;;;;;;;12.23;11.07;;;22.30;99.90;;;;;;5100106;28;20237;-55
2023/08/19 02:01:14;;;;;;;11.33;9.90;;;22.30;99.90;;;;;;5094479;28;20193;-55
2023/08/19 02:03:40;;;;;;;11.40;10.30;;;22.30;99.90;;;;;;5080017;28;20184;-55
2023/08/19 02:06:05;;;;;;;10.55;9.65;;;22.20;99.90;;;;;;5103021;28;20629;-54
2023/08/19 02:08:31;;;;;;;10.95;9.95;;;22.20;99.90;;;;;;5103273;28;20220;-55
2023/08/19 02:10:57;;;;;;;10.83;9.80;;;22.30;99.90;;;;;;5068944;28;20194;-56
2023/08/19 02:13:22;;;;;;;11.43;10.53;;;22.30;99.90;;;;;;5113589;27;20176;-54
2023/08/19 02:15:47;;;;;;;11.57;10.48;;;22.30;99.90;;;;;;5103562;28;20209;-56
2023/08/19 02:18:14;;;;;;;10.87;9.97;;;22.30;99.90;;;;;;5103379;28;20632;-55
2023/08/19 02:20:39;;;;;;;11.10;9.93;;;22.20;99.90;;;;;;5103168;28;20204;-55
2023/08/19 02:23:05;;;;;;;12.65;11.32;;;22.20;99.90;;;;;;5103078;28;20201;-55
2023/08/19 02:25:30;;;;;;;11.43;10.53;;;22.20;99.90;;;;;;5103378;28;20188;-55
2023/08/19 02:27:56;;;;;;;11.60;10.50;;;22.20;99.90;;;;;;5084783;28;20791;-56
2023/08/19 02:30:21;;;;;;;11.40;10.30;;;22.20;99.90;;;;;;5082622;28;20211;-55
2023/08/19 02:32:47;;;;;;;12.20;11.20;;;22.10;99.90;;;;;;5098542;28;20278;-55
2023/08/19 02:35:12;;;;;;;11.53;10.53;;;22.10;99.90;;;;;;5102720;28;20185;-56
2023/08/19 02:37:38;;;;;;;11.60;10.40;;;22.10;99.90;;;;;;5084188;28;20189;-55
2023/08/19 02:40:04;;;;;;;12.03;10.77;;;22.10;99.90;;;;;;5103067;28;20201;-54
2023/08/19 02:42:30;;;;;;;11.93;10.73;;;22.20;99.90;;;;;;5097501;28;20974;-56
2023/08/19 02:44:57;;;;;;;11.10;10.10;;;22.10;99.90;;;;;;5080104;28;20271;-56
2023/08/19 02:47:23;;;;;;;11.37;10.27;;;22.10;99.90;;;;;;5082450;28;20645;-56
2023/08/19 02:49:49;;;;;;;11.33;10.33;;;22.00;99.90;;;;;;5095696;28;20229;-56
2023/08/19 02:52:14;;;;;;;10.90;9.80;;;21.80;99.90;;;;;;5084318;28;20614;-56
2023/08/19 02:54:39;;;;;;;11.97;10.87;;;21.80;99.90;;;;;;5103585;28;20223;-56
2023/08/19 02:57:05;;;;;;;12.27;11.07;;;21.80;99.90;;;;;;5101244;28;20303;-56
2023/08/19 02:59:30;;;;;;;13.73;10.83;;;21.80;99.90;;;;;;5090254;28;20325;-56
2023/08/19 03:01:56;;;;;;;10.63;9.73;;;21.80;99.90;;;;;;5096218;28;20195;-56
2023/08/19 03:04:21;;;;;;;11.40;10.30;;;21.80;99.90;;;;;;5102662;28;20827;-56
2023/08/19 03:06:47;;;;;;;11.47;10.40;;;21.80;99.90;;;;;;5102578;28;20193;-55
2023/08/19 03:09:12;;;;;;;11.80;10.73;;;21.70;99.90;;;;;;5091033;28;20851;-56
2023/08/19 03:11:39;;;;;;;12.40;11.30;;;21.70;99.90;;;;;;5102545;28;20219;-58
2023/08/19 03:14:05;;;;;;;12.23;11.13;;;21.70;99.90;;;;;;5102325;28;20195;-56
2023/08/19 03:16:30;;;;;;;11.30;10.27;;;21.60;99.90;;;;;;5104311;27;20192;-56
2023/08/19 03:18:56;;;;;;;11.87;10.90;;;21.50;99.90;;;;;;5084006;28;20201;-63
2023/08/19 03:21:21;;;;;;;10.93;10.03;;;21.40;99.90;;;;;;5084368;28;20834;-64
2023/08/19 03:23:47;;;;;;;12.90;11.73;;;21.20;99.90;;;;;;5086223;28;20216;-58
2023/08/19 03:26:12;;;;;;;11.57;10.60;;;21.30;99.90;;;;;;5101735;28;20895;-55
2023/08/19 03:28:38;;;;;;;12.03;10.87;;;21.20;99.90;;;;;;5102219;28;20226;-56
2023/08/19 03:31:08;;;;;;;11.60;10.50;;;21.10;99.90;;;;;;5085823;28;20230;-57
2023/08/19 03:33:33;;;;;;;12.00;10.73;;;21.00;99.90;;;;;;5100122;28;20197;-56
2023/08/19 03:36:00;;;;;;;12.83;11.73;;;21.10;99.90;;;;;;5102220;28;20257;-56
2023/08/19 03:38:26;;;;;;;11.83;10.50;;;21.10;99.90;;;;;;5083418;28;20192;-56
2023/08/19 03:40:51;;;;;;;12.30;11.20;;;21.00;99.90;;;;;;5102194;28;20191;-56
2023/08/19 03:43:17;;;;;;;11.43;10.30;;;21.10;99.90;;;;;;5101571;28;20195;-56
2023/08/19 03:45:42;;;;;;;11.37;10.37;;;21.00;99.90;;;;;;5081382;28;20289;-56
2023/08/19 03:48:08;;;;;;;12.40;11.10;;;21.00;99.90;;;;;;5088485;28;20244;-56
2023/08/19 03:50:36;;;;;;;12.90;10.87;;;20.90;99.90;;;;;;5101483;28;20277;-56
2023/08/19 03:53:01;;;;;;;12.20;11.03;;;20.80;99.90;;;;;;5086041;28;20200;-56
2023/08/19 03:55:28;;;;;;;12.82;11.50;;;20.90;99.90;;;;;;5101305;28;20184;-56
2023/08/19 03:57:55;;;;;;;12.40;11.27;;;20.90;99.90;;;;;;5101841;28;20212;-56
2023/08/19 04:00:20;;;;;;;11.17;10.27;;;20.80;99.90;;;;;;5101920;28;21007;-56
2023/08/19 04:02:46;;;;;;;12.20;11.03;;;20.90;99.90;;;;;;5099890;28;20201;-56
2023/08/19 04:05:12;;;;;;;12.30;11.20;;;20.90;99.90;;;;;;5091860;28;20285;-56
2023/08/19 04:07:38;;;;;;;12.23;11.03;;;21.00;99.90;;;;;;5101730;28;20224;-56
2023/08/19 04:10:04;;;;;;;13.07;11.77;;;20.90;99.90;;;;;;5102056;28;20255;-56
2023/08/19 04:12:29;;;;;;;11.13;10.10;;;20.90;99.90;;;;;;5092276;28;20730;-56
2023/08/19 04:14:55;;;;;;;11.93;10.73;;;20.90;99.90;;;;;;5085395;28;20276;-56
2023/08/19 04:17:21;;;;;;;11.50;10.40;;;20.90;99.90;;;;;;5101290;28;20792;-56
2023/08/19 04:19:46;;;;;;;12.07;10.93;;;21.00;99.90;;;;;;5101772;28;20197;-55
2023/08/19 04:22:14;;;;;;;12.73;11.43;;;21.10;99.90;;;;;;5101747;28;20210;-55
2023/08/19 04:24:40;;;;;;;13.90;12.60;;;21.10;99.90;;;;;;5102419;28;20205;-55
2023/08/19 04:27:06;;;;;;;12.13;11.07;;;21.10;99.90;;;;;;5105328;28;20465;-56
2023/08/19 04:29:34;;;;;;;12.17;11.00;;;21.20;99.90;;;;;;5086926;28;20216;-56
2023/08/19 04:32:03;;;;;;;12.63;11.53;;;21.20;99.90;;;;;;5103319;28;20206;-56
2023/08/19 04:34:30;;;;;;;11.50;10.50;;;21.20;99.90;;;;;;5087214;28;20184;-56
2023/08/19 04:36:55;;;;;;;12.70;11.47;;;21.20;99.90;;;;;;5105508;28;20189;-55
2023/08/19 04:39:21;;;;;;;11.93;10.83;;;21.40;99.90;;;;;;5094434;28;20253;-57
2023/08/19 04:41:47;;;;;;;11.90;10.90;;;21.50;99.90;;;;;;5096628;28;20285;-57
2023/08/19 04:44:13;;;;;;;12.63;11.33;;;21.50;99.90;;;;;;5102278;28;20658;-57
2023/08/19 04:46:38;;;;;;;13.40;12.10;;;21.50;99.90;;;;;;5105298;28;20203;-56
2023/08/19 04:49:05;;;;;;;12.93;11.73;;;21.60;99.90;;;;;;5105079;28;20300;-56
2023/08/19 04:51:32;;;;;;;11.80;10.73;;;21.60;99.90;;;;;;5105002;28;20241;-55
2023/08/19 04:53:58;;;;;;;11.90;10.80;;;21.70;99.90;;;;;;5104799;28;20191;-65
2023/08/19 04:56:23;;;;;;;13.27;12.07;;;21.80;99.90;;;;;;5104999;28;20981;-58
2023/08/19 04:58:49;;;;;;;13.00;11.77;;;21.80;99.90;;;;;;5104802;28;20256;-58
2023/08/19 05:01:14;;;;;;;16.13;12.80;;;21.90;99.90;;;;;;5104854;28;20597;-76
2023/08/19 05:03:40;;;;;;;12.37;11.27;;;21.90;99.90;;;;;;5084622;28;20553;-58
2023/08/19 05:06:05;;;;;;;14.03;12.67;;;21.90;99.90;;;;;;5084383;28;20205;-60
2023/08/19 05:08:31;;;;;;;14.93;13.63;;;21.90;99.90;;;;;;5103708;28;20216;-60
2023/08/19 05:10:56;;;;;;;14.30;12.77;;;22.00;99.90;;;;;;5103789;28;20197;-66
2023/08/19 05:13:22;;;;;;;15.73;14.40;;;22.20;99.90;;;;;;5104184;28;20199;-62
2023/08/19 05:15:47;;;;;;;16.87;15.30;;;22.20;99.90;;;;;;5104135;28;20213;-59
2023/08/19 05:18:13;;;;;;;15.90;14.50;;;22.20;99.90;;;;;;5092620;28;20272;-63
2023/08/19 05:20:38;;;;;;;16.17;14.57;;;22.30;99.90;;;;;;5085623;28;20204;-64
2023/08/19 05:23:04;;;;;;;15.47;14.13;;;22.30;99.90;;;;;;5113247;27;20276;-60
2023/08/19 05:25:30;;;;;;;16.20;14.60;;;22.40;99.90;;;;;;5104435;28;20250;-59
2023/08/19 05:27:56;;;;;;;16.63;15.07;;;22.50;99.90;;;;;;5086102;28;20197;-60
2023/08/19 05:30:22;;;;;;;15.67;14.27;;;22.50;99.90;;;;;;5103764;28;20262;-60
2023/08/19 05:32:48;;;;;;;16.17;14.57;;;22.50;99.90;;;;;;5102404;28;20237;-60
2023/08/19 05:35:13;;;;;;;15.67;14.27;;;22.40;99.90;;;;;;5103579;28;20203;-60
2023/08/19 05:37:39;;;;;;;16.20;14.80;;;22.50;99.90;;;;;;5116009;27;20213;-59
2023/08/19 05:40:05;;;;;;;16.60;15.10;;;22.60;99.90;;;;;;5106066;27;20189;-64
2023/08/19 05:42:31;;;;;;;16.10;14.50;;;22.60;99.90;;;;;;5093539;28;20189;-63
2023/08/19 05:44:56;;;;;;;15.23;13.93;;;22.60;99.90;;;;;;5099544;28;20189;-62
2023/08/19 05:47:22;;;;;;;17.00;15.40;;;22.60;99.90;;;;;;5103955;28;20816;-65
2023/08/19 05:49:47;;;;;;;17.08;15.27;;;22.60;99.90;;;;;;5104075;28;20220;-86
2023/08/19 05:52:13;;;;;;;17.97;16.17;;;22.70;99.90;;;;;;5104285;28;20307;-64
2023/08/19 05:54:38;;;;;;;15.88;14.48;;;22.70;99.90;;;;;;5103767;28;20689;-64
2023/08/19 05:57:04;;;;;;;17.80;16.00;;;22.70;99.90;;;;;;5084836;28;20220;-64
2023/08/19 05:59:29;;;;;;;15.40;14.00;;;22.70;99.90;;;;;;5103843;28;20181;-64
2023/08/19 06:01:55;;;;;;;18.30;16.65;;;22.60;99.90;;;;;;5101548;28;20705;-63
2023/08/19 06:04:20;;;;;;;18.80;16.80;;;22.40;99.90;;;;;;5099651;28;20207;-65
2023/08/19 06:06:46;;;;;;;15.77;14.47;;;22.50;99.90;;;;;;5082167;28;20309;-59
2023/08/19 06:09:11;;;;;;;18.23;15.93;;;22.40;99.90;;;;;;5102947;28;20265;-60
2023/08/19 06:11:47;;;;;;;17.20;15.40;;;22.40;99.90;;;;;;5102436;28;20192;-61
2023/08/19 06:14:13;;;;;;;16.27;14.63;;;22.40;99.90;;;;;;5102990;28;20245;-60
2023/08/19 06:16:38;;;;;;;16.80;15.27;;;22.40;99.90;;;;;;5103272;28;20726;-59
2023/08/19 06:19:04;;;;;;;16.43;14.90;;;22.40;99.90;;;;;;5084426;28;20196;-59
2023/08/19 06:21:29;;;;;;;17.50;15.80;;;22.50;99.90;;;;;;5102908;28;20272;-58
2023/08/19 06:23:55;;;;;;;17.23;15.73;;;22.50;99.90;;;;;;5084153;28;20586;-62
2023/08/19 06:26:20;;;;;;;17.80;16.20;;;22.60;99.90;;;;;;5083935;28;20275;-70
2023/08/19 06:28:46;;;;;;;18.60;16.73;;;22.60;99.90;;;;;;5102733;28;20212;-61
2023/08/19 06:31:11;;;;;;;18.43;16.63;;;22.60;99.90;;;;;;5074336;28;20293;-60
2023/08/19 06:33:37;;;;;;;16.80;15.33;;;22.70;99.90;;;;;;5100452;28;20663;-60
2023/08/19 06:36:04;;;;;;;19.50;17.70;;;22.80;99.90;;;;;;5102169;28;20453;-61
2023/08/19 06:38:31;;;;;;;17.50;15.90;;;22.80;99.90;;;;;;5101846;28;20291;-61
2023/08/19 06:41:10;;;;;;;17.97;16.37;;;22.80;99.90;;;;;;5102210;28;20202;-62
2023/08/19 06:43:40;;;;;;;16.37;14.87;;;22.80;99.90;;;;;;5079022;28;20216;-66
2023/08/19 06:46:08;;;;;;;17.30;15.70;;;22.80;99.90;;;;;;5101845;28;20254;-60
2023/08/19 06:48:35;;;;;;;18.17;16.47;;;22.90;99.90;;;;;;5080456;28;20216;-72
2023/08/19 06:51:01;;;;;;;18.63;16.80;;;22.90;99.90;;;;;;5078887;28;20189;-71
2023/08/19 06:53:28;;;;;;;17.87;16.27;;;22.90;99.90;;;;;;5102252;28;20196;-73
2023/08/19 06:56:22;;;;;;;16.77;15.33;;;23.00;99.90;;;;;;5083070;28;20253;-65
2023/08/19 06:58:52;;;;;;;17.63;16.13;;;23.10;99.90;;;;;;5079803;28;20247;-66
2023/08/19 07:01:24;;;;;;;17.08;15.48;;;23.10;99.90;;;;;;5081967;28;20188;-66
2023/08/19 07:03:53;;;;;;;17.63;16.10;;;23.10;99.90;;;;;;5077761;28;20659;-65
2023/08/19 07:06:20;;;;;;;16.08;14.57;;;23.20;99.90;;;;;;5102087;28;20205;-65
2023/08/19 07:08:46;;;;;;;15.75;14.38;;;23.20;99.90;;;;;;5083803;28;20220;-70
2023/08/19 07:11:12;;;;;;;18.48;16.80;;;23.20;99.90;;;;;;5101762;28;20419;-66
2023/08/19 07:13:38;;;;;;;23.10;15.23;;;23.40;99.90;;;;;;5082032;28;20193;-62
2023/08/19 07:16:05;;;;;;;17.38;15.98;;;23.60;99.90;;;;;;5082611;28;20199;-69
2023/08/19 07:18:37;;;;;;;17.13;15.63;;;23.60;99.90;;;;;;5071740;28;20589;-61
2023/08/19 07:21:04;;;;;;;15.73;14.07;;;23.70;99.90;;;;;;5083454;28;20185;-59
2023/08/19 07:23:30;;;;;;;16.17;14.65;;;23.90;99.90;;;;;;5091962;28;20197;-74
2023/08/19 07:25:58;;;;;;;17.15;15.75;;;24.00;99.90;;;;;;5070871;28;20448;-65
2023/08/19 07:28:24;;;;;;;14.85;13.57;;;23.90;99.90;;;;;;5101648;28;20216;-65
2023/08/19 07:30:51;;;;;;;15.95;14.35;;;23.90;99.90;;;;;;5097773;28;20257;-65
2023/08/19 07:33:17;;;;;;;17.15;15.57;;;24.00;99.90;;;;;;5082030;28;20200;-65
2023/08/19 07:35:44;;;;;;;16.88;14.43;;;24.20;99.90;;;;;;5084056;28;20207;-79
2023/08/19 07:38:09;;;;;;;20.40;16.10;;;24.30;99.90;;;;;;5102177;28;20216;-60
2023/08/19 07:40:35;;;;;;;20.10;15.73;;;24.30;99.90;;;;;;5102085;28;20686;-59
2023/08/19 07:43:01;;;;;;;14.60;13.30;;;24.20;99.90;;;;;;5090992;28;20185;-64
2023/08/19 07:45:26;;;;;;;15.10;13.90;;;24.30;99.90;;;;;;5079209;28;20185;-63
2023/08/19 07:47:52;;;;;;;14.60;13.30;;;24.30;99.90;;;;;;5083339;28;20645;-76
2023/08/19 07:50:17;;;;;;;18.73;15.00;;;24.40;99.90;;;;;;5111212;28;20213;-82
2023/08/19 07:52:43;;;;;;;15.10;13.63;;;24.50;99.90;;;;;;5101967;28;20201;-69
2023/08/19 07:55:08;;;;;;;15.90;14.35;;;24.60;99.90;;;;;;5102235;28;20587;-82
2023/08/19 07:57:34;;;;;;;16.35;13.80;;;24.60;99.90;;;;;;5083434;28;20307;-67
2023/08/19 07:59:59;;;;;;;14.95;13.57;;;24.70;99.90;;;;;;5084821;28;20185;-65
2023/08/19 08:02:25;;;;;;;15.88;14.18;;;24.90;99.90;;;;;;5098722;28;20741;-65
2023/08/19 08:04:51;;;;;;;14.32;12.98;;;24.90;99.90;;;;;;5083983;28;20207;-65
2023/08/19 08:07:16;;;;;;;15.60;13.90;;;24.90;99.90;;;;;;5106426;28;20568;-65
2023/08/19 08:09:43;;;;;;;15.63;13.48;;;25.00;99.90;;;;;;5106201;28;20217;-60
2023/08/19 08:12:09;;;;;;;15.70;13.00;;;25.00;99.90;;;;;;5074400;28;20586;-62
2023/08/19 08:14:35;;;;;;;13.38;12.23;;;25.00;99.90;;;;;;5099578;27;20205;-61
2023/08/19 08:17:00;;;;;;;13.90;12.60;;;25.10;99.90;;;;;;5106358;27;20198;-70
2023/08/19 08:19:26;;;;;;;13.93;12.57;;;25.10;99.90;;;;;;5093204;28;20284;-59
2023/08/19 08:21:53;;;;;;;14.63;13.13;;;25.10;99.90;;;;;;5092826;27;20194;-59
2023/08/19 08:24:19;;;;;;;14.88;13.52;;;25.20;99.90;;;;;;5095787;27;20183;-69
2023/08/19 08:26:48;;;;;;;14.38;13.07;;;25.20;99.90;;;;;;5073899;27;20642;-70
2023/08/19 08:29:13;;;;;;;14.50;13.30;;;25.30;99.90;;;;;;5097446;28;20212;-68
2023/08/19 08:31:39;;;;;;;12.50;11.35;;;25.30;99.90;;;;;;5104645;28;20189;-68
2023/08/19 08:34:05;;;;;;;13.95;12.65;;;25.40;99.90;;;;;;5086448;28;20195;-63
2023/08/19 08:36:30;;;;;;;14.05;12.65;;;25.40;99.90;;;;;;5100836;27;20197;-77
2023/08/19 08:38:56;;;;;;;13.57;12.13;;;25.50;99.90;;;;;;5086712;28;20679;-64
2023/08/19 08:41:22;;;;;;;13.02;11.93;;;25.60;99.90;;;;;;5103336;28;20194;-67
2023/08/19 08:43:48;;;;;;;11.90;10.80;;;25.70;99.90;;;;;;5101498;28;20675;-58
2023/08/19 08:46:16;;;;;;;11.15;10.25;;;25.70;99.90;;;;;;5103500;28;20188;-58
2023/08/19 08:48:43;;;;;;;13.52;12.50;;;25.70;99.90;;;;;;5086652;28;20210;-61
2023/08/19 08:51:09;;;;;;;14.20;12.90;;;25.80;99.90;;;;;;5095169;28;20184;-60
2023/08/19 08:53:35;;;;;;;13.80;12.43;;;25.90;99.90;;;;;;5105318;28;20241;-59
2023/08/19 08:56:02;;;;;;;13.88;12.60;;;26.00;99.90;;;;;;5084108;28;20199;-61
2023/08/19 08:58:27;;;;;;;12.05;11.15;;;26.10;99.90;;;;;;5085169;28;20229;-60
2023/08/19 09:00:54;;;;;;;13.10;12.00;;;26.10;99.90;;;;;;5102259;28;20189;-64
2023/08/19 09:03:29;;;;;;;13.35;12.18;;;26.10;99.90;;;;;;5102092;28;20185;-63
2023/08/19 09:06:00;;;;;;;11.85;10.75;;;26.20;99.90;;;;;;5085949;28;20207;-64
2023/08/19 09:08:34;;;;;;;13.50;12.25;;;26.20;99.90;;;;;;5100835;28;20824;-60
2023/08/19 09:11:00;;;;;;;13.25;11.98;;;26.30;99.90;;;;;;5079557;28;20194;-59
2023/08/19 09:13:27;;;;;;;12.65;11.52;;;26.40;99.90;;;;;;5101351;28;20188;-61
2023/08/19 09:15:54;;;;;;;11.93;10.82;;;26.50;99.90;;;;;;5104149;28;20280;-60
2023/08/19 09:18:20;;;;;;;11.65;10.70;;;26.50;99.90;;;;;;5078631;28;20199;-60
2023/08/19 09:20:47;;;;;;;13.13;11.75;;;26.40;99.90;;;;;;5076533;28;20287;-60
2023/08/19 09:23:12;;;;;;;13.43;10.82;;;26.70;99.90;;;;;;5095294;28;20277;-66
2023/08/19 09:25:40;;;;;;;12.48;10.77;;;26.80;99.90;;;;;;5101792;28;20280;-63
2023/08/19 09:28:06;;;;;;;12.15;11.15;;;26.80;99.90;;;;;;5085714;28;20240;-61
2023/08/19 09:30:33;;;;;;;13.88;11.63;;;26.70;99.90;;;;;;5098400;28;20672;-68
2023/08/19 09:33:01;;;;;;;12.70;11.45;;;26.70;99.90;;;;;;5085749;28;20732;-67
2023/08/19 09:35:38;;;;;;;10.90;9.90;;;27.00;99.90;;;;;;5084661;28;20242;-64
2023/08/19 09:38:04;;;;;;;10.38;9.57;;;26.90;99.90;;;;;;5084987;28;20198;-63
2023/08/19 09:40:30;;;;;;;11.93;10.77;;;27.00;99.90;;;;;;5103117;28;20258;-64
2023/08/19 09:42:58;;;;;;;10.98;10.00;;;26.70;99.90;;;;;;5083122;28;20587;-63
2023/08/19 09:45:28;;;;;;;11.18;10.27;;;26.80;99.90;;;;;;5103537;28;20183;-63
2023/08/19 09:47:54;;;;;;;11.35;9.90;;;27.20;99.90;;;;;;5101594;28;20188;-61
2023/08/19 09:50:21;;;;;;;11.30;10.40;;;27.30;99.90;;;;;;5081736;28;20215;-64
2023/08/19 09:53:01;;;;;;;11.23;10.23;;;27.20;99.90;;;;;;5099948;28;20185;-68
2023/08/19 09:55:28;;;;;;;11.63;10.63;;;27.10;99.90;;;;;;5093964;28;20752;-68
2023/08/19 09:57:54;;;;;;;11.75;10.63;;;27.00;99.90;;;;;;5070485;28;20236;-61
2023/08/19 10:00:20;;;;;;;12.05;10.95;;;27.20;99.90;;;;;;5075342;28;20254;-61
2023/08/19 10:02:45;;;;;;;11.77;10.87;;;27.40;99.90;;;;;;5077801;28;20523;-65
2023/08/19 10:05:11;;;;;;;11.80;10.75;;;27.50;99.90;;;;;;5065364;28;20235;-68
2023/08/19 10:07:40;;;;;;;11.25;10.02;;;27.30;99.90;;;;;;5089231;28;20191;-78
2023/08/19 10:10:11;;;;;;;11.57;10.57;;;27.30;99.90;;;;;;5083815;28;20220;-78
2023/08/19 10:12:40;;;;;;;11.88;10.65;;;27.40;99.90;;;;;;5081407;28;20208;-65
2023/08/19 10:15:08;;;;;;;10.82;9.75;;;27.40;99.90;;;;;;5063651;28;20203;-68
2023/08/19 10:17:36;;;;;;;10.98;10.07;;;27.60;99.90;;;;;;5082642;28;20278;-69
2023/08/19 10:20:10;;;;;;;11.07;10.18;;;27.60;99.90;;;;;;5080747;28;20231;-65
2023/08/19 10:22:41;;;;;;;11.73;10.65;;;27.70;99.90;;;;;;5082993;28;20181;-64
2023/08/19 10:25:07;;;;;;;10.65;9.75;;;27.60;99.90;;;;;;5079413;28;20188;-64
2023/08/19 10:27:33;;;;;;;12.25;11.18;;;27.90;99.90;;;;;;5084632;28;20365;-63
2023/08/19 10:29:59;;;;;;;10.95;10.05;;;27.90;99.90;;;;;;5060869;28;20690;-64
2023/08/19 10:32:25;;;;;;;11.52;10.52;;;27.90;99.90;;;;;;5064404;28;21163;-63
2023/08/19 10:34:50;;;;;;;11.15;10.20;;;27.80;99.90;;;;;;5077393;28;20200;-65
2023/08/19 10:37:16;;;;;;;10.32;9.23;;;27.90;99.90;;;;;;5056746;28;20270;-64
2023/08/19 10:39:45;;;;;;;10.35;9.20;;;28.10;99.90;;;;;;5084353;28;20201;-70
2023/08/19 10:42:13;;;;;;;12.90;8.73;;;28.20;99.90;;;;;;5063428;28;20193;-64
2023/08/19 10:44:40;;;;;;;10.38;9.48;;;28.30;99.90;;;;;;5074150;28;20174;-76
2023/08/19 10:47:13;;;;;;;11.63;10.45;;;28.10;99.90;;;;;;5062931;28;20594;-68
2023/08/19 10:49:39;;;;;;;9.82;9.10;;;28.20;99.90;;;;;;5075971;28;20209;-67
2023/08/19 10:52:05;;;;;;;10.15;9.25;;;28.30;99.90;;;;;;5079681;28;20441;-68
2023/08/19 10:54:43;;;;;;;11.57;10.48;;;28.50;99.90;;;;;;5075103;28;20197;-66
2023/08/19 10:57:13;;;;;;;10.45;9.63;;;28.40;99.90;;;;;;5060272;28;20221;-68
2023/08/19 10:59:46;;;;;;;12.45;11.10;;;27.70;99.90;;;;;;5063165;28;20196;-70
2023/08/19 11:02:13;;;;;;;11.60;10.50;;;26.70;99.90;;;;;;5080956;28;20333;-80
2023/08/19 11:04:41;;;;;;;11.68;10.65;;;26.30;99.90;;;;;;5072590;28;20293;-68
2023/08/19 11:07:07;;;;;;;11.93;11.02;;;25.80;99.90;;;;;;5084513;28;20203;-71
2023/08/19 11:09:33;;;;;;;11.85;10.77;;;25.50;99.90;;;;;;5061288;28;20216;-69
2023/08/19 11:11:59;;;;;;;10.52;9.73;;;25.50;99.90;;;;;;5077792;28;20248;-70
2023/08/19 11:14:25;;;;;;;10.85;9.63;;;25.80;99.90;;;;;;5060535;28;20232;-63
2023/08/19 11:16:52;;;;;;;10.52;9.73;;;26.00;99.90;;;;;;5073385;28;20205;-67
2023/08/19 11:19:22;;;;;;;9.73;8.82;;;26.30;99.90;;;;;;5073153;28;20794;-63
2023/08/19 11:21:48;;;;;;;10.27;9.43;;;26.40;99.90;;;;;;5076024;28;20189;-73
2023/08/19 11:24:14;;;;;;;10.23;9.23;;;26.40;99.90;;;;;;5075917;28;20205;-66
2023/08/19 11:26:44;;;;;;;9.13;8.25;;;26.70;99.90;;;;;;5053590;28;20251;-72
2023/08/19 11:29:10;;;;;;;9.20;8.50;;;27.10;99.90;;;;;;5074598;28;20279;-62
2023/08/19 11:31:40;;;;;;;9.75;8.88;;;27.00;99.90;;;;;;5070948;28;20200;-64
2023/08/19 11:34:15;;;;;;;9.32;8.63;;;27.10;99.90;;;;;;5077697;28;20185;-71
2023/08/19 11:36:43;;;;;;;9.93;9.07;;;26.90;99.90;;;;;;5067119;28;20220;-69
2023/08/19 11:39:09;;;;;;;8.70;8.10;;;27.00;99.90;;;;;;5085886;28;20181;-65
2023/08/19 11:41:35;;;;;;;9.75;9.05;;;27.10;99.90;;;;;;5074907;28;20197;-65
2023/08/19 11:44:06;;;;;;;9.48;8.30;;;27.20;99.90;;;;;;5081871;28;20189;-62
2023/08/19 11:46:32;;;;;;;9.27;8.60;;;27.70;99.90;;;;;;5064940;28;20722;-71
2023/08/19 11:49:01;;;;;;;14.05;8.73;;;28.30;99.90;;;;;;5063277;28;20214;-64
2023/08/19 11:51:29;;;;;;;9.40;8.63;;;27.30;99.90;;;;;;5058623;28;20856;-65
2023/08/19 11:54:03;;;;;;;8.57;7.88;;;28.20;99.90;;;;;;5067811;28;20814;-68
2023/08/19 11:56:42;;;;;;;9.35;8.65;;;28.00;99.90;;;;;;5080513;28;20200;-68
2023/08/19 11:59:09;;;;;;;9.18;8.43;;;28.20;99.90;;;;;;5092477;28;20249;-68
2023/08/19 12:01:36;;;;;;;9.02;8.27;;;29.00;99.90;;;;;;5087736;28;20730;-75
2023/08/19 12:04:08;;;;;;;9.10;8.30;;;29.70;99.90;;;;;;5084751;28;20793;-65
2023/08/19 12:06:34;;;;;;;8.23;7.43;;;30.40;99.90;;;;;;5064731;28;20246;-59
2023/08/19 12:08:59;;;;;;;8.27;7.60;;;31.20;99.20;;;;;;5082744;28;20268;-60
2023/08/19 12:11:25;;;;;;;9.02;8.40;;;31.70;99.00;;;;;;5080928;28;20679;-59
2023/08/19 12:13:50;;;;;;;8.25;7.45;;;32.30;98.10;;;;;;5085653;28;20258;-59
2023/08/19 12:16:16;;;;;;;8.43;7.80;;;32.60;95.20;;;;;;5088406;28;20205;-57
2023/08/19 12:18:42;;;;;;;7.70;7.20;;;33.00;94.80;;;;;;5086588;28;20215;-59
2023/08/19 12:21:08;;;;;;;10.70;7.78;;;32.60;93.10;;;;;;5069567;28;20667;-60
2023/08/19 12:23:33;;;;;;;8.88;8.27;;;33.00;93.70;;;;;;5080100;28;20280;-63
2023/08/19 12:26:00;;;;;;;7.60;7.05;;;33.30;95.00;;;;;;5079138;28;20224;-67
2023/08/19 12:28:26;;;;;;;7.70;7.10;;;33.60;91.30;;;;;;5066344;28;20288;-60